Jump to content

  •  

DELTA AIRLINES FLIGHT DL722 FLOWN ON 01-04-2018 BY CAPTAIN JIM BOERMAN

Pilot StatsCaptain Jim Boerman (LDP136) • 4,772.1 total hours • 1,444 total flights [View Logbook]
FLIGHT DETAILS
StatusReceived and approved on 2018-01-04 at 13:01:20
Origin AirportOranjestad-Reina Beatrix Intl. (TNCA) • Aruba Island, Aruba (62 feet MSL)
Filed Flight PlanFLIGHT PLANNER OFFLINE
Destination AirportKennedy Intl (KJFK) • New York, New York, United States (13 feet MSL)
Alternate AirportBradley Intl (KBDL) • Windsor Locks, Connecticut, United States (173 feet MSL)
AirlineDelta Airlines
AircraftBoeing 737-800 | Winglets (73H / B737-800)
FS Aircraft UsedBoeing 737-832NGX Delta Air Lines Winglets
Cruising AltitudeFL340
Distance Flown1,701 nautical miles
Passengers Onboard102 passengers (62.96% full)
DEPARTURE DETAILS
Time Out09:40:17
Taxi Data161,183 lbs total with 35,433 lbs of fuel onboard
Takeoff Data09:51:37 (11 minutes after leaving gate/ramp) • 160,514 lbs total • 10° pitch at 163 knots
Departure METARTNCA 041200Z 10011KT 9999 FEW018 27/24 Q1012 A2989 NOSIG
ARRIVAL DETAILS
Landing Data13:08:25 • 136,947 lbs total • 4° pitch doing 121 knots at a rate of -402.93 feet/minute with 10,412 lbs of fuel onboard
Time In13:24:53 (16 minutes after landing)
Ramp Weight136,162 lbs total
Total Fuel Used25,021 lbs
Total Block Time04:44:35 (4.7 hours) while 28 minutes were spent on the ground
Arrival METARKJFK 041816Z 33036G43KT 1/8SM R04R/1800V2400FT -SN BLSN FZFG VV008 M05/M06 A2922 RMK AO2 PK WND 34043/1808 SFC VIS 1/4 P0000 T10501061 $
MISCELLANEOUS DETAILS
LiveDISPATCH Version4.8.3.1
FS Version
FSUIPC Version5.12
OS VersionWindows 7 32-bit
Screen Resolution1920 x 1080
Pilot's CommentsNo Comments Reported
FLIGHT MAP